createdAt,value
2018-06-01T00:00:34.897Z,93.38
2018-06-01T00:01:34.888Z,93.09
2018-06-01T00:02:34.917Z,93.19
2018-06-01T00:03:34.902Z,93.09
2018-06-01T00:04:34.935Z,93.48
2018-06-01T00:05:34.881Z,93.38
2018-06-01T00:06:34.907Z,93.19
2018-06-01T00:07:34.865Z,93.09
2018-06-01T00:08:34.934Z,93.48
2018-06-01T00:09:34.338Z,93.38
2018-06-01T00:10:34.331Z,93.09
2018-06-01T00:11:34.918Z,92.90
2018-06-01T00:12:34.916Z,93.19
2018-06-01T00:13:34.935Z,92.32
2018-06-01T00:14:34.850Z,93.48
2018-06-01T00:15:34.290Z,93.38
2018-06-01T00:16:34.606Z,92.90
2018-06-01T00:17:35.145Z,93.81
2018-06-01T00:18:34.908Z,94.10
2018-06-01T00:19:34.948Z,93.48
2018-06-01T00:20:34.938Z,93.86
2018-06-01T00:21:34.873Z,93.81
2018-06-01T00:22:34.875Z,94.20
2018-06-01T00:23:34.930Z,94.10
2018-06-01T00:24:34.928Z,93.66
2018-06-01T00:25:34.934Z,94.15
2018-06-01T00:26:34.916Z,93.48
2018-06-01T00:27:34.933Z,93.09
2018-06-01T00:28:34.958Z,93.19
2018-06-01T00:29:34.907Z,93.09
2018-06-01T00:30:34.916Z,93.09
2018-06-01T00:31:34.867Z,93.28
2018-06-01T00:32:37.484Z,93.28
2018-06-01T00:33:34.887Z,93.96
2018-06-01T00:34:34.969Z,93.86
2018-06-01T00:35:36.931Z,93.96
2018-06-01T00:36:34.918Z,94.39
2018-06-01T00:37:34.826Z,93.86
2018-06-01T00:38:34.826Z,94.49
2018-06-01T00:39:34.881Z,93.91
2018-06-01T00:40:34.344Z,93.66
2018-06-01T00:41:34.883Z,94.39
2018-06-01T00:42:34.368Z,94.06
2018-06-01T00:43:34.907Z,93.91
2018-06-01T00:44:34.910Z,94.20
2018-06-01T00:45:34.903Z,93.38
2018-06-01T00:46:34.902Z,93.81
2018-06-01T00:47:34.908Z,94.59
2018-06-01T00:48:34.364Z,94.97
2018-06-01T00:49:34.887Z,95.55
2018-06-01T00:50:34.931Z,95.64
2018-06-01T00:51:34.915Z,94.78
2018-06-01T00:52:34.949Z,95.64
2018-06-01T00:53:34.917Z,95.36
2018-06-01T00:54:34.939Z,95.45
2018-06-01T00:55:34.912Z,96.22
2018-06-01T00:56:34.928Z,95.45
2018-06-01T00:57:34.926Z,95.55
2018-06-01T00:58:34.948Z,94.97
2018-06-01T00:59:34.965Z,95.64
2018-06-01T01:00:34.918Z,95.45
2018-06-01T01:01:34.939Z,95.74
2018-06-01T01:02:34.431Z,94.97
2018-06-01T01:03:34.913Z,94.10
2018-06-01T01:04:34.969Z,95.45
2018-06-01T01:05:34.967Z,94.87
2018-06-01T01:06:34.957Z,95.36
2018-06-01T01:07:34.473Z,95.74
2018-06-01T01:08:34.843Z,95.84
2018-06-01T01:09:34.918Z,95.55
2018-06-01T01:10:34.874Z,96.22
2018-06-01T01:11:34.484Z,95.45
2018-06-01T01:12:34.913Z,95.84
2018-06-01T01:13:34.902Z,95.64
2018-06-01T01:14:34.903Z,94.97
2018-06-01T01:15:34.444Z,95.64
2018-06-01T01:16:34.939Z,95.55
2018-06-01T01:17:34.947Z,95.16
2018-06-01T01:18:34.912Z,95.84
2018-06-01T01:19:34.879Z,95.84
2018-06-01T01:20:34.894Z,95.84
2018-06-01T01:21:34.916Z,95.26
2018-06-01T01:22:34.901Z,95.55
2018-06-01T01:23:34.881Z,95.64
2018-06-01T01:24:34.930Z,95.45
2018-06-01T01:25:34.950Z,95.36
2018-06-01T01:26:34.932Z,95.45
2018-06-01T01:27:34.490Z,95.64
2018-06-01T01:28:34.933Z,95.64
2018-06-01T01:29:34.506Z,95.64
2018-06-01T01:30:34.978Z,95.84
2018-06-01T01:31:34.963Z,96.12
2018-06-01T01:32:34.972Z,96.22
2018-06-01T01:33:34.966Z,96.03
2018-06-01T01:34:34.974Z,96.03
2018-06-01T01:35:34.895Z,95.64
2018-06-01T01:36:34.913Z,95.45
2018-06-01T01:37:34.928Z,96.12
2018-06-01T01:38:41.456Z,95.74
2018-06-01T01:39:34.904Z,95.74
2018-06-01T01:40:34.921Z,95.64
2018-06-01T01:41:34.912Z,95.64
2018-06-01T01:42:34.914Z,95.45
2018-06-01T01:43:34.918Z,95.45
2018-06-01T01:44:34.558Z,95.64
2018-06-01T01:45:35.159Z,95.74
2018-06-01T01:46:34.966Z,96.17
2018-06-01T01:47:34.970Z,96.89
2018-06-01T01:48:42.263Z,96.32
2018-06-01T01:49:37.132Z,96.32
2018-06-01T01:50:34.958Z,96.85
2018-06-01T01:51:37.055Z,96.75
2018-06-01T01:52:34.960Z,96.22
2018-06-01T01:53:34.977Z,96.51
2018-06-01T01:54:36.969Z,96.37
2018-06-01T01:55:37.499Z,96.27
2018-06-01T01:56:35.030Z,96.56
2018-06-01T01:57:35.692Z,96.08
2018-06-01T01:58:35.958Z,96.12
2018-06-01T01:59:36.984Z,96.12
2018-06-01T02:00:34.626Z,96.03
2018-06-01T02:01:45.414Z,96.17
2018-06-01T02:02:35.029Z,95.64
2018-06-01T02:03:34.919Z,95.55
2018-06-01T02:04:34.924Z,96.08
2018-06-01T02:05:34.970Z,96.27
2018-06-01T02:06:34.962Z,97.14
2018-06-01T02:07:34.971Z,96.46
2018-06-01T02:08:34.942Z,96.85
2018-06-01T02:09:36.735Z,95.79
2018-06-01T02:10:34.977Z,95.89
2018-06-01T02:11:35.000Z,96.37
2018-06-01T02:12:34.969Z,95.55
2018-06-01T02:13:34.965Z,96.03
2018-06-01T02:14:37.251Z,95.79
2018-06-01T02:15:34.923Z,97.04
2018-06-01T02:16:35.144Z,97.52
2018-06-01T02:17:36.991Z,97.14
2018-06-01T02:18:35.158Z,96.85
2018-06-01T02:19:34.975Z,96.94
2018-06-01T02:20:35.156Z,96.66
2018-06-01T02:21:34.959Z,96.37
2018-06-01T02:22:36.839Z,96.46
2018-06-01T02:23:34.975Z,97.14
2018-06-01T02:24:34.651Z,97.14
2018-06-01T02:25:37.800Z,96.94
2018-06-01T02:26:35.958Z,96.46
2018-06-01T02:27:35.158Z,96.46
2018-06-01T02:28:35.185Z,96.17
2018-06-01T02:29:35.007Z,96.08
2018-06-01T02:30:34.690Z,96.66
2018-06-01T02:31:35.166Z,96.46
2018-06-01T02:32:34.962Z,96.08
2018-06-01T02:33:35.152Z,96.27
2018-06-01T02:34:34.936Z,96.46
2018-06-01T02:35:34.982Z,96.46
2018-06-01T02:36:34.976Z,95.98
2018-06-01T02:37:34.921Z,96.75
2018-06-01T02:38:34.984Z,96.17
2018-06-01T02:39:34.990Z,96.17
2018-06-01T02:40:34.986Z,97.14
2018-06-01T02:41:35.010Z,96.94
2018-06-01T02:42:34.968Z,96.94
2018-06-01T02:43:35.035Z,97.04
2018-06-01T02:44:34.987Z,96.56
2018-06-01T02:45:35.000Z,96.56
2018-06-01T02:46:34.989Z,97.14
2018-06-01T02:47:35.037Z,97.42
2018-06-01T02:48:35.159Z,97.33
2018-06-01T02:49:35.046Z,97.72
2018-06-01T02:50:35.044Z,96.94
2018-06-01T02:51:34.999Z,97.42
2018-06-01T02:52:36.067Z,96.66
2018-06-01T02:53:34.987Z,96.37
2018-06-01T02:54:36.886Z,96.27
2018-06-01T02:55:36.917Z,96.56
2018-06-01T02:56:34.968Z,97.04
2018-06-01T02:57:34.938Z,97.52
2018-06-01T02:58:34.963Z,97.33
2018-06-01T02:59:34.947Z,97.52
2018-06-01T03:00:34.983Z,97.33
2018-06-01T03:01:37.795Z,97.24
2018-06-01T03:02:35.189Z,97.52
2018-06-01T03:03:34.951Z,98.10
2018-06-01T03:04:35.005Z,98.44
2018-06-01T03:05:34.923Z,98.58
2018-06-01T03:06:37.191Z,98.49
2018-06-01T03:07:34.952Z,98.29
2018-06-01T03:08:34.968Z,97.91
2018-06-01T03:09:34.663Z,97.72
2018-06-01T03:10:34.999Z,97.91
2018-06-01T03:11:35.166Z,98.49
2018-06-01T03:12:35.085Z,98.68
2018-06-01T03:13:36.993Z,98.68
2018-06-01T03:14:36.999Z,98.39
2018-06-01T03:15:35.113Z,98.19
2018-06-01T03:16:35.144Z,98.68
2018-06-01T03:17:35.079Z,98.87
2018-06-01T03:18:35.084Z,98.54
2018-06-01T03:19:36.564Z,98.29
2018-06-01T03:20:35.122Z,98.29
2018-06-01T03:21:35.004Z,98.10
2018-06-01T03:22:34.953Z,98.29
2018-06-01T03:23:34.992Z,98.19
2018-06-01T03:24:34.941Z,99.11
2018-06-01T03:25:34.690Z,98.54
2018-06-01T03:26:34.991Z,98.39
2018-06-01T03:27:34.990Z,98.49
2018-06-01T03:28:35.028Z,98.10
2018-06-01T03:29:35.048Z,98.39
2018-06-01T03:30:36.992Z,98.49
2018-06-01T03:31:35.058Z,98.97
2018-06-01T03:32:35.031Z,98.68
2018-06-01T03:33:35.062Z,98.92
2018-06-01T03:34:35.067Z,99.16
2018-06-01T03:35:35.061Z,98.19
2018-06-01T03:36:35.037Z,98.39
2018-06-01T03:37:35.061Z,98.87
2018-06-01T03:38:35.027Z,99.01
2018-06-01T03:39:35.111Z,99.06
2018-06-01T03:40:35.042Z,98.68
2018-06-01T03:41:35.184Z,99.30
2018-06-01T03:42:35.111Z,99.54
2018-06-01T03:43:36.029Z,99.98
2018-06-01T03:44:35.093Z,99.99
2018-06-01T03:45:37.182Z,99.35
2018-06-01T03:46:37.100Z,99.98
2018-06-01T03:47:35.185Z,99.11
2018-06-01T03:49:35.043Z,99.06
2018-06-01T03:50:35.008Z,99.06
2018-06-01T03:51:35.113Z,99.35
2018-06-01T03:52:35.053Z,99.35
2018-06-01T03:53:35.232Z,99.93
2018-06-01T03:54:35.016Z,99.35
2018-06-01T03:55:35.105Z,99.99
2018-06-01T03:56:35.092Z,99.99
2018-06-01T03:57:35.549Z,99.93
2018-06-01T03:58:35.198Z,99.99
2018-06-01T03:59:37.190Z,99.40
2018-06-01T04:00:35.114Z,99.69
2018-06-01T04:01:34.974Z,98.77
2018-06-01T04:02:35.089Z,99.21
2018-06-01T04:03:35.107Z,99.88
2018-06-01T04:04:35.082Z,99.78
2018-06-01T04:05:35.118Z,99.93
2018-06-01T04:06:36.073Z,98.68
2018-06-01T04:07:36.069Z,99.21
2018-06-01T04:08:37.227Z,99.99
2018-06-01T04:09:37.204Z,99.99
2018-06-01T04:10:35.126Z,99.40
2018-06-01T04:11:37.204Z,99.69
2018-06-01T04:12:35.138Z,99.26
2018-06-01T04:13:35.166Z,99.21
2018-06-01T04:14:35.156Z,99.16
2018-06-01T04:15:35.165Z,98.49
2018-06-01T04:16:35.327Z,98.19
2018-06-01T04:17:35.885Z,97.91
2018-06-01T04:18:35.207Z,98.49
2018-06-01T04:19:35.155Z,98.19
2018-06-01T04:20:35.201Z,98.58
2018-06-01T04:21:35.244Z,98.10
2018-06-01T04:22:35.218Z,97.33
2018-06-01T04:23:35.125Z,97.24
2018-06-01T04:24:34.789Z,97.14
2018-06-01T04:25:35.050Z,97.04
2018-06-01T04:26:35.052Z,97.24
2018-06-01T04:27:35.127Z,97.52
2018-06-01T04:28:35.129Z,97.24
2018-06-01T04:29:37.165Z,97.24
2018-06-01T04:30:35.129Z,97.19
2018-06-01T04:31:35.130Z,96.32
2018-06-01T04:32:35.208Z,96.22
2018-06-01T04:33:34.871Z,96.61
2018-06-01T04:34:35.096Z,96.56
2018-06-01T04:35:35.068Z,96.03
2018-06-01T04:36:34.818Z,96.94
2018-06-01T04:37:35.140Z,97.14
2018-06-01T04:38:35.217Z,96.03
2018-06-01T04:39:35.186Z,96.12
2018-06-01T04:40:35.743Z,95.84
2018-06-01T04:41:35.291Z,95.64
2018-06-01T04:42:35.022Z,95.64
2018-06-01T04:43:35.069Z,95.64
2018-06-01T04:44:35.244Z,96.12
2018-06-01T04:45:35.233Z,96.32
2018-06-01T04:46:35.028Z,96.03
2018-06-01T04:47:35.227Z,95.16
2018-06-01T04:48:35.295Z,95.36
2018-06-01T04:49:35.317Z,95.45
2018-06-01T04:50:35.315Z,95.07
2018-06-01T04:51:35.914Z,94.97
2018-06-01T04:52:35.204Z,94.39
2018-06-01T04:53:35.230Z,94.10
2018-06-01T04:54:35.238Z,93.72
2018-06-01T04:55:35.708Z,92.61
2018-06-01T04:56:35.226Z,93.24
2018-06-01T04:57:35.304Z,93.66
2018-06-01T04:58:35.270Z,93.86
2018-06-01T04:59:37.071Z,93.28
2018-06-01T05:00:35.299Z,92.61
2018-06-01T05:01:34.894Z,92.90
2018-06-01T05:02:35.630Z,93.19
2018-06-01T05:03:35.174Z,93.66
2018-06-01T05:04:35.707Z,93.48
2018-06-01T05:05:35.239Z,92.51
2018-06-01T05:06:35.224Z,92.61
2018-06-01T05:07:35.532Z,92.51
2018-06-01T05:08:35.566Z,92.22
2018-06-01T05:09:36.222Z,92.61
2018-06-01T05:10:35.753Z,92.90
2018-06-01T05:11:37.274Z,92.32
2018-06-01T05:12:35.259Z,91.83
2018-06-01T05:13:35.509Z,92.32
2018-06-01T05:14:35.263Z,92.90
2018-06-01T05:15:35.264Z,92.32
2018-06-01T05:16:35.594Z,92.13
2018-06-01T05:17:35.798Z,92.22
2018-06-01T05:18:35.511Z,92.32
2018-06-01T05:19:35.568Z,91.83
2018-06-01T05:20:35.508Z,92.13
2018-06-01T05:21:35.768Z,93.19
2018-06-01T05:22:34.895Z,93.09
2018-06-01T05:23:35.773Z,92.41
2018-06-01T05:24:35.516Z,92.13
2018-06-01T05:25:35.721Z,91.83
2018-06-01T05:26:35.582Z,91.93
2018-06-01T05:27:35.620Z,92.32
2018-06-01T05:28:35.565Z,92.32
2018-06-01T05:29:35.557Z,92.51
2018-06-01T05:30:37.316Z,92.13
2018-06-01T05:31:37.366Z,92.13
2018-06-01T05:32:35.508Z,91.83
2018-06-01T05:33:35.549Z,92.13
2018-06-01T05:34:34.866Z,92.51
2018-06-01T05:35:35.536Z,92.13
2018-06-01T05:36:35.770Z,92.13
2018-06-01T05:37:35.733Z,91.93
2018-06-01T05:38:36.088Z,91.93
2018-06-01T05:39:35.777Z,92.61
2018-06-01T05:40:35.271Z,92.41
2018-06-01T05:41:35.807Z,91.74
2018-06-01T05:42:35.752Z,91.83
2018-06-01T05:43:35.280Z,91.64
2018-06-01T05:44:35.761Z,91.93
2018-06-01T05:45:35.732Z,91.55
2018-06-01T05:46:36.092Z,92.13
2018-06-01T05:47:35.328Z,92.61
2018-06-01T05:48:35.836Z,91.83
2018-06-01T05:49:35.800Z,91.64
2018-06-01T05:50:35.755Z,91.16
2018-06-01T05:51:35.787Z,91.16
2018-06-01T05:52:35.777Z,91.06
2018-06-01T05:53:35.018Z,90.97
2018-06-01T05:54:35.727Z,91.93
2018-06-01T05:55:35.776Z,91.98
2018-06-01T05:56:35.277Z,91.55
2018-06-01T05:57:35.534Z,91.45
2018-06-01T05:58:35.783Z,91.64
2018-06-01T05:59:36.093Z,91.40
2018-06-01T06:00:35.834Z,90.53
2018-06-01T06:01:35.819Z,90.92
2018-06-01T06:02:37.567Z,90.24
2018-06-01T06:03:35.560Z,90.34
2018-06-01T06:04:35.842Z,89.86
2018-06-01T06:05:36.234Z,89.76
2018-06-01T06:06:35.625Z,89.57
2018-06-01T06:07:36.222Z,89.81
2018-06-01T06:08:35.617Z,89.51
2018-06-01T06:09:35.040Z,89.86
2018-06-01T06:10:35.583Z,89.51
2018-06-01T06:11:35.060Z,89.90
2018-06-01T06:12:35.069Z,89.13
2018-06-01T06:13:35.711Z,88.65
2018-06-01T06:14:35.711Z,88.17
2018-06-01T06:15:35.111Z,88.07
2018-06-01T06:16:35.292Z,88.36
2018-06-01T06:17:35.786Z,87.97
2018-06-01T06:18:35.784Z,87.20
2018-06-01T06:19:35.499Z,88.02
2018-06-01T06:20:35.651Z,88.79
2018-06-01T06:21:35.606Z,88.17
2018-06-01T06:22:36.256Z,87.30
2018-06-01T06:23:35.743Z,87.59
2018-06-01T06:24:35.750Z,86.82
2018-06-01T06:25:35.875Z,86.91
2018-06-01T06:26:35.817Z,87.34
2018-06-01T06:27:35.536Z,87.24
2018-06-01T06:28:35.832Z,86.96
2018-06-01T06:29:35.617Z,86.28
2018-06-01T06:30:35.811Z,86.08
2018-06-01T06:31:35.056Z,85.70
2018-06-01T06:32:35.357Z,85.50
2018-06-01T06:33:35.713Z,86.28
2018-06-01T06:34:35.923Z,85.31
2018-06-01T06:35:35.797Z,85.50
2018-06-01T06:36:35.166Z,85.22
2018-06-01T06:37:35.588Z,85.22
2018-06-01T06:38:35.557Z,84.30
2018-06-01T06:39:35.864Z,84.39
2018-06-01T06:40:35.758Z,84.48
2018-06-01T06:41:35.820Z,84.10
2018-06-01T06:42:35.854Z,83.62
2018-06-01T06:43:35.256Z,83.23
2018-06-01T06:44:35.985Z,83.42
2018-06-01T06:45:35.156Z,83.72
2018-06-01T06:46:35.846Z,82.94
2018-06-01T06:47:35.601Z,82.84
2018-06-01T06:48:35.796Z,83.14
2018-06-01T06:49:35.809Z,81.88
2018-06-01T06:50:35.538Z,82.36
2018-06-01T06:51:35.556Z,82.02
2018-06-01T06:52:35.543Z,81.40
2018-06-01T06:53:35.555Z,82.11
2018-06-01T06:54:35.807Z,81.82
2018-06-01T06:55:35.890Z,82.21
2018-06-01T06:56:36.285Z,82.40
2018-06-01T06:57:35.558Z,82.40
2018-06-01T06:58:35.561Z,82.65
2018-06-01T06:59:35.804Z,83.85
2018-06-01T07:00:35.854Z,83.08
2018-06-01T07:01:35.809Z,83.56
2018-06-01T07:02:36.126Z,82.98
2018-06-01T07:03:35.849Z,83.37
2018-06-01T07:04:35.543Z,84.14
2018-06-01T07:05:35.550Z,84.72
2018-06-01T07:06:35.531Z,85.26
2018-06-01T07:07:35.854Z,84.63
2018-06-01T07:08:35.573Z,84.30
2018-06-01T07:09:35.635Z,84.00
2018-06-01T07:10:35.684Z,84.39
2018-06-01T07:11:49.772Z,84.68
2018-06-01T07:12:35.850Z,84.88
2018-06-01T07:13:35.807Z,83.91
2018-06-01T07:14:35.768Z,84.39
2018-06-01T07:15:35.622Z,84.30
2018-06-01T07:16:36.904Z,84.97
2018-06-01T07:17:35.811Z,85.16
2018-06-01T07:18:35.820Z,84.68
2018-06-01T07:19:35.580Z,84.78
2018-06-01T07:20:35.539Z,84.72
2018-06-01T07:21:35.642Z,84.24
2018-06-01T07:22:35.817Z,85.16
2018-06-01T07:23:35.391Z,85.36
2018-06-01T07:24:35.650Z,85.59
2018-06-01T07:25:35.578Z,85.64
2018-06-01T07:26:35.817Z,85.78
2018-06-01T07:27:35.845Z,85.98
2018-06-01T07:28:36.205Z,85.59
2018-06-01T07:29:36.298Z,85.55
2018-06-01T07:30:35.800Z,85.88
2018-06-01T07:31:35.779Z,85.59
2018-06-01T07:32:35.780Z,85.64
2018-06-01T07:33:36.134Z,86.03
2018-06-01T07:34:35.818Z,86.03
2018-06-01T07:35:35.310Z,85.94
2018-06-01T07:36:35.668Z,86.90
2018-06-01T07:37:36.358Z,87.73
2018-06-01T07:38:36.273Z,87.53
2018-06-01T07:39:35.635Z,87.24
2018-06-01T07:40:35.538Z,87.63
2018-06-01T07:41:35.820Z,87.82
2018-06-01T07:42:35.863Z,87.92
2018-06-01T07:43:35.800Z,87.34
2018-06-01T07:44:35.838Z,87.44
2018-06-01T07:45:35.786Z,87.34
2018-06-01T07:46:34.245Z,86.90
2018-06-01T07:47:36.135Z,87.19
2018-06-01T07:48:36.132Z,87.19
2018-06-01T07:49:35.677Z,87.00
2018-06-01T07:50:35.786Z,87.19
2018-06-01T07:51:35.650Z,87.09
2018-06-01T07:52:35.725Z,87.58
2018-06-01T07:53:35.669Z,87.38
2018-06-01T07:54:36.463Z,86.90
2018-06-01T07:55:36.119Z,87.00
2018-06-01T07:56:35.787Z,87.19
2018-06-01T07:57:35.808Z,86.86
2018-06-01T07:58:36.036Z,87.34
2018-06-01T07:59:35.873Z,87.92
2018-06-01T08:00:36.285Z,87.82
2018-06-01T08:01:35.530Z,87.82
2018-06-01T08:02:35.821Z,88.31
2018-06-01T08:03:35.851Z,88.50
2018-06-01T08:04:35.788Z,88.79
2018-06-01T08:05:35.724Z,89.51
2018-06-01T08:06:35.789Z,89.47
2018-06-01T08:07:36.174Z,90.96
2018-06-01T08:08:35.877Z,90.96
2018-06-01T08:09:35.863Z,90.87
2018-06-01T08:10:35.850Z,91.25
2018-06-01T08:11:35.839Z,91.06
2018-06-01T08:12:35.885Z,91.35
2018-06-01T08:13:36.126Z,91.83
2018-06-01T08:14:35.736Z,92.36
2018-06-01T08:15:35.742Z,92.02
2018-06-01T08:16:36.117Z,91.25
2018-06-01T08:17:36.141Z,91.54
2018-06-01T08:18:36.141Z,90.67
2018-06-01T08:19:35.439Z,90.33
2018-06-01T08:20:36.577Z,90.05
2018-06-01T08:21:36.068Z,89.85
2018-06-01T08:22:35.700Z,89.75
2018-06-01T08:23:37.654Z,89.37
2018-06-01T08:24:36.047Z,89.75
2018-06-01T08:25:35.780Z,89.56
2018-06-01T08:26:36.436Z,89.56
2018-06-01T08:27:36.076Z,89.75
2018-06-01T08:28:36.063Z,90.53
2018-06-01T08:29:36.487Z,89.71
2018-06-01T08:30:35.742Z,90.29
2018-06-01T08:31:35.796Z,90.29
2018-06-01T08:32:35.849Z,90.29
2018-06-01T08:33:36.346Z,90.29
2018-06-01T08:34:35.875Z,90.29
2018-06-01T08:35:35.906Z,91.06
2018-06-01T08:36:36.341Z,91.16
2018-06-01T08:37:35.914Z,91.64
2018-06-01T08:38:36.135Z,91.83
2018-06-01T08:39:35.848Z,91.44
2018-06-01T08:40:36.173Z,90.72
2018-06-01T08:41:35.849Z,91.74
2018-06-01T08:42:35.844Z,90.87
2018-06-01T08:43:36.325Z,91.16
2018-06-01T08:44:50.407Z,90.96
2018-06-01T08:45:36.357Z,91.06
2018-06-01T08:46:35.532Z,90.87
2018-06-01T08:47:36.297Z,91.30
2018-06-01T08:48:36.191Z,91.30
2018-06-01T08:49:35.849Z,91.35
2018-06-01T08:50:36.353Z,91.88
2018-06-01T08:51:35.814Z,91.35
2018-06-01T08:52:36.190Z,91.50
2018-06-01T08:53:36.404Z,91.02
2018-06-01T08:54:35.851Z,91.78
2018-06-01T08:55:36.642Z,91.98
2018-06-01T08:56:36.496Z,92.17
2018-06-01T08:57:36.283Z,92.17
2018-06-01T08:58:36.381Z,92.56
2018-06-01T08:59:36.122Z,92.75
2018-06-01T09:00:36.129Z,92.41
2018-06-01T09:01:36.399Z,93.04
2018-06-01T09:02:36.375Z,93.81
2018-06-01T09:03:36.389Z,93.66
2018-06-01T09:05:39.173Z,94.00
2018-06-01T09:06:38.228Z,94.20
2018-06-01T09:07:37.011Z,93.81
2018-06-01T09:08:36.141Z,93.76
2018-06-01T09:09:36.141Z,93.76
2018-06-01T09:10:36.394Z,93.52
2018-06-01T09:11:36.239Z,93.76
2018-06-01T09:12:36.415Z,93.18
2018-06-01T09:13:36.328Z,93.08
2018-06-01T09:14:36.340Z,92.60
2018-06-01T09:16:38.334Z,92.17
2018-06-01T09:17:38.881Z,93.33
2018-06-01T09:18:39.122Z,93.62
2018-06-01T09:19:36.663Z,93.52
2018-06-01T09:20:35.832Z,94.00
2018-06-01T09:21:35.916Z,93.57
2018-06-01T09:22:36.864Z,92.80
2018-06-01T09:23:36.320Z,93.43
2018-06-01T09:24:36.221Z,93.13
2018-06-01T09:25:36.276Z,93.52
2018-06-01T09:26:35.770Z,93.43
2018-06-01T09:27:36.873Z,93.91
2018-06-01T09:28:36.014Z,93.91
2018-06-01T09:29:36.327Z,94.29
2018-06-01T09:30:38.979Z,94.20
2018-06-01T09:31:36.813Z,95.54
2018-06-01T09:32:36.105Z,95.64
2018-06-01T09:33:36.111Z,94.48
2018-06-01T09:34:36.110Z,95.45
2018-06-01T09:35:36.102Z,94.20
2018-06-01T09:36:36.365Z,94.39
2018-06-01T09:37:36.716Z,95.16
2018-06-01T09:38:35.871Z,96.03
2018-06-01T09:39:36.385Z,96.99
2018-06-01T09:40:36.411Z,98.20
2018-06-01T09:41:36.554Z,98.49
2018-06-01T09:42:36.688Z,98.20
2018-06-01T09:43:36.175Z,98.39
2018-06-01T09:44:35.729Z,99.16
2018-06-01T09:45:36.276Z,98.87
2018-06-01T09:46:35.959Z,99.45
2018-06-01T09:47:35.939Z,99.26
2018-06-01T09:48:36.129Z,99.64
2018-06-01T09:49:36.372Z,98.77
2018-06-01T09:50:36.771Z,99.45
2018-06-01T09:51:35.592Z,98.54
2018-06-01T09:52:35.896Z,98.49
2018-06-01T09:53:36.746Z,99.26
2018-06-01T09:54:36.675Z,97.62
2018-06-01T09:55:36.856Z,96.61
2018-06-01T09:56:36.290Z,96.32
2018-06-01T09:57:38.300Z,95.26
2018-06-01T09:58:38.188Z,94.92
2018-06-01T09:59:35.893Z,97.19
2018-06-01T10:00:38.359Z,98.54
2018-06-01T10:01:36.696Z,98.00
2018-06-01T10:02:36.716Z,96.75
2018-06-01T10:03:35.588Z,95.98
2018-06-01T10:04:50.383Z,95.01
2018-06-01T10:05:35.946Z,94.43
2018-06-01T10:06:35.893Z,95.98
2018-06-01T10:07:35.698Z,95.74
2018-06-01T10:08:35.588Z,96.12
2018-06-01T10:09:35.347Z,96.03
2018-06-01T10:10:35.377Z,95.59
2018-06-01T10:11:35.380Z,95.54
2018-06-01T10:12:36.115Z,96.12
2018-06-01T10:13:35.922Z,96.17
2018-06-01T10:14:35.806Z,94.00
2018-06-01T10:15:35.292Z,93.95
2018-06-01T10:16:35.807Z,93.85
2018-06-01T10:17:35.839Z,93.57
2018-06-01T10:18:35.343Z,94.15
2018-06-01T10:19:35.332Z,94.53
2018-06-01T10:20:35.315Z,93.95
2018-06-01T10:21:35.394Z,95.11
2018-06-01T10:22:36.915Z,95.79
2018-06-01T10:23:35.933Z,95.69
2018-06-01T10:24:36.486Z,95.40
2018-06-01T10:25:36.174Z,94.92
2018-06-01T10:26:36.408Z,95.50
2018-06-01T10:27:36.852Z,96.22
2018-06-01T10:28:36.349Z,97.38
2018-06-01T10:29:38.715Z,96.56
2018-06-01T10:30:36.701Z,95.40
2018-06-01T10:31:36.467Z,96.08
2018-06-01T10:32:36.223Z,92.94
2018-06-01T10:33:36.342Z,92.07
2018-06-01T10:34:36.199Z,92.07
2018-06-01T10:35:46.206Z,91.39
2018-06-01T10:36:42.391Z,91.20
2018-06-01T10:37:42.512Z,90.28
2018-06-01T10:38:36.861Z,90.19
2018-06-01T10:39:36.178Z,91.44
2018-06-01T10:40:36.437Z,93.27
2018-06-01T10:41:36.211Z,91.49
2018-06-01T10:42:36.403Z,91.15
2018-06-01T10:43:36.411Z,89.94
2018-06-01T10:44:39.053Z,89.36
2018-06-01T10:45:36.353Z,86.56
2018-06-01T10:46:36.748Z,85.30
2018-06-01T10:47:36.260Z,85.11
2018-06-01T10:48:37.254Z,85.53
2018-06-01T10:49:36.747Z,86.27
2018-06-01T10:50:36.642Z,85.05
2018-06-01T10:51:36.187Z,85.15
2018-06-01T10:52:38.602Z,85.58
2018-06-01T10:53:36.671Z,84.95
2018-06-01T10:54:38.705Z,83.61
2018-06-01T10:55:36.258Z,84.38
2018-06-01T10:56:36.700Z,85.87
2018-06-01T10:57:36.279Z,86.25
2018-06-01T10:58:38.837Z,85.77
2018-06-01T10:59:37.579Z,84.61
2018-06-01T11:00:36.247Z,83.26
2018-06-01T11:01:42.955Z,84.08
2018-06-01T11:02:36.209Z,84.08
2018-06-01T11:03:36.356Z,83.78
2018-06-01T11:04:36.714Z,84.94
2018-06-01T11:05:35.945Z,85.37
2018-06-01T11:06:38.433Z,84.89
2018-06-01T11:07:37.042Z,82.76
2018-06-01T11:08:36.341Z,81.89
2018-06-01T11:09:36.113Z,83.58
2018-06-01T11:10:36.168Z,81.05
2018-06-01T11:11:36.258Z,80.38
2018-06-01T11:12:36.145Z,79.22
2018-06-01T11:13:36.167Z,78.83
2018-06-01T11:14:36.976Z,79.90
2018-06-01T11:15:36.411Z,78.97
2018-06-01T11:16:35.971Z,78.87
2018-06-01T11:17:36.375Z,79.25
2018-06-01T11:18:36.700Z,77.65
2018-06-01T11:19:36.513Z,76.15
2018-06-01T11:20:36.513Z,76.58
2018-06-01T11:21:36.501Z,77.65
2018-06-01T11:22:36.491Z,77.45
2018-06-01T11:23:36.769Z,77.75
2018-06-01T11:24:36.291Z,78.87
2018-06-01T11:25:36.752Z,77.94
2018-06-01T11:26:38.203Z,77.55
2018-06-01T11:27:36.390Z,76.06
2018-06-01T11:28:38.151Z,76.54
2018-06-01T11:29:36.463Z,76.12
2018-06-01T11:30:37.015Z,76.41
2018-06-01T11:31:36.366Z,76.79
2018-06-01T11:32:43.421Z,77.28
2018-06-01T11:33:36.424Z,77.37
2018-06-01T11:34:38.378Z,77.19
2018-06-01T11:35:36.386Z,77.67
2018-06-01T11:36:42.875Z,77.19
2018-06-01T11:37:37.064Z,77.76
2018-06-01T11:38:36.968Z,78.83
2018-06-01T11:39:36.391Z,78.44
2018-06-01T11:40:37.085Z,78.25
2018-06-01T11:41:38.754Z,77.76
2018-06-01T11:42:36.411Z,77.70
2018-06-01T11:43:37.233Z,77.03
2018-06-01T11:44:36.612Z,78.23
2018-06-01T11:45:36.387Z,77.94
2018-06-01T11:46:36.724Z,77.55
2018-06-01T11:47:36.425Z,77.45
2018-06-01T11:48:36.417Z,77.65
2018-06-01T11:49:36.800Z,76.39
2018-06-01T11:50:36.432Z,75.90
2018-06-01T11:51:38.498Z,76.29
2018-06-01T11:52:37.931Z,76.00
2018-06-01T11:53:36.360Z,76.06
2018-06-01T11:54:39.188Z,75.51
2018-06-01T11:55:36.392Z,75.96
2018-06-01T11:56:38.750Z,75.38
2018-06-01T11:57:36.967Z,75.09
2018-06-01T11:58:36.896Z,76.25
2018-06-01T11:59:36.932Z,76.00
2018-06-01T12:00:36.706Z,75.13
2018-06-01T12:02:36.934Z,74.64
2018-06-01T12:03:37.245Z,74.19
2018-06-01T12:04:36.915Z,73.32
2018-06-01T12:05:36.997Z,74.35
2018-06-01T12:06:37.215Z,73.61
2018-06-01T12:07:37.224Z,72.64
2018-06-01T12:08:37.695Z,73.32
2018-06-01T12:09:37.393Z,72.61
2018-06-01T12:10:36.708Z,72.74
2018-06-01T12:11:36.693Z,72.93
2018-06-01T12:12:36.445Z,70.73
2018-06-01T12:13:44.234Z,70.45
2018-06-01T12:14:36.698Z,69.90
2018-06-01T12:15:36.976Z,68.77
2018-06-01T12:16:36.946Z,68.25
2018-06-01T12:17:36.779Z,68.18
2018-06-01T12:18:36.711Z,68.80
2018-06-01T12:19:36.161Z,66.60
2018-06-01T12:20:38.577Z,65.82
2018-06-01T12:21:37.102Z,65.46
2018-06-01T12:22:37.277Z,64.23
2018-06-01T12:24:13.618Z,63.09
2018-06-01T12:24:38.938Z,64.04
2018-06-01T12:25:36.587Z,64.45
2018-06-01T12:26:43.470Z,65.98
2018-06-01T12:27:36.673Z,66.08
2018-06-01T12:28:38.257Z,66.96
2018-06-01T12:29:36.686Z,68.02
2018-06-01T12:30:43.058Z,68.02
2018-06-01T12:31:37.945Z,66.41
2018-06-01T12:32:37.278Z,66.08
2018-06-01T12:33:36.957Z,66.66
2018-06-01T12:34:36.913Z,65.79
2018-06-01T12:35:38.945Z,66.37
2018-06-01T12:36:36.915Z,65.88
2018-06-01T12:37:37.304Z,65.50
2018-06-01T12:38:36.912Z,64.20
2018-06-01T12:39:37.148Z,64.39
2018-06-01T12:40:37.655Z,64.94
2018-06-01T12:41:36.686Z,64.75
2018-06-01T12:42:36.955Z,66.02
2018-06-01T12:43:37.992Z,67.11
2018-06-01T12:44:38.975Z,65.40
2018-06-01T12:45:36.867Z,65.23
2018-06-01T12:46:38.930Z,64.94
2018-06-01T12:47:37.254Z,64.00
2018-06-01T12:48:37.297Z,64.39
2018-06-01T12:49:36.628Z,64.13
2018-06-01T12:50:36.801Z,63.22
2018-06-01T12:51:36.763Z,63.35
2018-06-01T12:52:37.264Z,62.86
2018-06-01T12:53:37.314Z,62.76
2018-06-01T12:54:37.388Z,63.06
2018-06-01T12:55:36.956Z,62.76
2018-06-01T12:56:37.351Z,60.58